Time;durP1;ratioP1;P1;durP2;ratioP2;P2;SDS_P1;SDS_P2;PMS_P1;PMS_P2;Temp;Humidity;BMP_temperature;BMP_pressure;BME280_temperature;BME280_humidity;BME280_pressure;Samples;Min_cycle;Max_cycle;Signal;HPM_P1;HPM_P2
2024/02/08 00:00:45;;;;;;;25.20;10.10;;;2.60;99.90;;;;;;4928584;28;37905;-80
2024/02/08 00:03:13;;;;;;;28.10;10.53;;;2.60;99.90;;;;;;4927185;28;36425;-78
2024/02/08 00:05:41;;;;;;;30.07;11.53;;;2.60;99.90;;;;;;4926078;28;37771;-78
2024/02/08 00:08:08;;;;;;;35.17;10.70;;;2.60;99.90;;;;;;4924615;28;37846;-81
2024/02/08 00:10:34;;;;;;;24.20;10.23;;;2.60;99.90;;;;;;4920914;29;37253;-80
2024/02/08 00:13:00;;;;;;;37.50;10.90;;;2.50;99.90;;;;;;4925646;29;36380;-81
2024/02/08 00:15:29;;;;;;;26.00;10.77;;;2.60;99.90;;;;;;4923558;29;38253;-79
2024/02/08 00:18:04;;;;;;;23.63;9.60;;;2.60;99.90;;;;;;4929225;29;37341;-82
2024/02/08 00:20:31;;;;;;;28.70;9.80;;;2.50;99.90;;;;;;4930844;28;47340;-82
2024/02/08 00:22:58;;;;;;;31.07;10.50;;;2.50;99.90;;;;;;4926604;28;37377;-81
2024/02/08 00:25:24;;;;;;;25.73;9.97;;;2.40;99.90;;;;;;4926564;28;38335;-78
2024/02/08 00:27:54;;;;;;;24.03;9.60;;;2.40;99.90;;;;;;4924139;28;37501;-80
2024/02/08 00:30:21;;;;;;;23.93;10.27;;;2.30;99.90;;;;;;4919642;28;38069;-80
2024/02/08 00:32:48;;;;;;;29.93;10.03;;;2.30;99.90;;;;;;4925938;28;37010;-80
2024/02/08 00:35:18;;;;;;;26.33;9.80;;;2.30;99.90;;;;;;4923332;29;39026;-82
2024/02/08 00:37:48;;;;;;;23.33;10.50;;;2.30;99.90;;;;;;4926736;28;37375;-81
2024/02/08 00:40:18;;;;;;;27.60;9.80;;;2.30;99.90;;;;;;4922150;28;36821;-80
2024/02/08 00:42:47;;;;;;;26.70;10.07;;;2.40;99.90;;;;;;4926291;28;36327;-82
2024/02/08 00:45:21;;;;;;;35.53;11.80;;;2.50;99.90;;;;;;4934701;28;37914;-82
2024/02/08 00:47:54;;;;;;;29.27;10.23;;;2.50;99.90;;;;;;4925652;28;39117;-83
2024/02/08 00:50:21;;;;;;;25.48;10.57;;;2.60;99.90;;;;;;4922229;28;38621;-82
2024/02/08 00:52:47;;;;;;;31.67;11.77;;;2.60;99.90;;;;;;4923723;28;36509;-79
2024/02/08 00:55:17;;;;;;;26.13;11.10;;;2.70;99.90;;;;;;4923948;28;37754;-82
2024/02/08 00:57:43;;;;;;;25.60;10.60;;;2.70;99.90;;;;;;4928718;28;38390;-82
2024/02/08 01:00:10;;;;;;;29.93;10.03;;;2.70;99.90;;;;;;4924049;28;38141;-82
2024/02/08 01:02:36;;;;;;;22.73;9.47;;;2.70;99.90;;;;;;4924091;28;36226;-82
2024/02/08 01:05:03;;;;;;;24.93;10.43;;;2.70;99.90;;;;;;4923185;28;38586;-82
2024/02/08 01:07:31;;;;;;;25.87;10.03;;;2.70;99.90;;;;;;4931481;28;38811;-82
2024/02/08 01:09:58;;;;;;;25.63;10.37;;;2.80;99.90;;;;;;4934342;28;37555;-79
2024/02/08 01:12:26;;;;;;;26.63;10.03;;;2.80;99.90;;;;;;4924408;28;36479;-79
2024/02/08 01:14:52;;;;;;;30.97;10.60;;;2.80;99.90;;;;;;4929283;28;38350;-79
2024/02/08 01:17:19;;;;;;;33.40;10.77;;;2.90;99.90;;;;;;4935996;28;37265;-80
2024/02/08 01:19:47;;;;;;;25.37;9.77;;;2.90;99.90;;;;;;4922277;29;37700;-82
2024/02/08 01:22:19;;;;;;;23.67;9.13;;;3.00;99.90;;;;;;4927253;28;37205;-83
2024/02/08 01:24:49;;;;;;;33.50;11.98;;;2.90;99.90;;;;;;4925177;29;36304;-80
2024/02/08 01:27:20;;;;;;;30.93;10.83;;;3.00;99.90;;;;;;4921915;28;37885;-81
2024/02/08 01:29:50;;;;;;;29.67;10.87;;;3.00;99.90;;;;;;4926504;28;37534;-81
2024/02/08 01:32:17;;;;;;;22.87;9.80;;;3.10;99.90;;;;;;4919741;29;36377;-81
2024/02/08 01:34:44;;;;;;;32.27;9.87;;;3.20;99.90;;;;;;4932436;28;38644;-80
2024/02/08 01:37:14;;;;;;;33.73;10.47;;;3.20;99.90;;;;;;4925298;28;37344;-83
2024/02/08 01:39:41;;;;;;;36.97;10.53;;;3.30;99.90;;;;;;4928269;28;37022;-82
2024/02/08 01:42:15;;;;;;;28.87;10.33;;;3.30;99.90;;;;;;4926730;28;36334;-80
2024/02/08 01:44:45;;;;;;;34.43;10.93;;;3.30;99.90;;;;;;4925955;28;39332;-81
2024/02/08 01:47:20;;;;;;;28.17;10.53;;;3.30;99.90;;;;;;4919477;28;38458;-84
2024/02/08 01:49:47;;;;;;;39.07;11.53;;;3.30;99.90;;;;;;4928869;28;38774;-82
2024/02/08 01:52:18;;;;;;;29.83;9.43;;;3.30;99.90;;;;;;4922817;28;36363;-80
2024/02/08 01:54:48;;;;;;;27.20;10.20;;;3.30;99.90;;;;;;4925904;28;37676;-82
2024/02/08 01:57:14;;;;;;;23.87;11.13;;;3.40;99.90;;;;;;4922470;28;37334;-83
2024/02/08 01:59:52;;;;;;;27.43;10.63;;;3.40;99.90;;;;;;4934870;28;38252;-81
2024/02/08 02:02:21;;;;;;;31.63;10.87;;;3.40;99.90;;;;;;5411572;23;36311;-79
2024/02/08 02:04:48;;;;;;;25.93;9.87;;;3.40;99.90;;;;;;4921771;29;38047;-80
2024/02/08 02:07:14;;;;;;;22.67;9.67;;;3.40;99.90;;;;;;4943502;29;37722;-80
2024/02/08 02:09:40;;;;;;;19.80;9.20;;;3.30;99.90;;;;;;4928407;28;39285;-78
2024/02/08 02:12:15;;;;;;;25.90;11.13;;;3.30;99.90;;;;;;4926678;29;36420;-81
2024/02/08 02:14:41;;;;;;;21.00;9.13;;;3.30;99.90;;;;;;4923877;29;39897;-80
2024/02/08 02:17:16;;;;;;;23.33;11.53;;;3.30;99.90;;;;;;4923696;29;40941;-79
2024/02/08 02:19:42;;;;;;;29.27;10.67;;;3.30;99.90;;;;;;4939364;28;38249;-79
2024/02/08 02:22:12;;;;;;;27.67;10.03;;;3.30;99.90;;;;;;4922305;29;37483;-80
2024/02/08 02:24:42;;;;;;;32.83;10.57;;;3.30;99.90;;;;;;4923888;29;38506;-80
2024/02/08 02:27:10;;;;;;;22.73;9.50;;;3.30;99.90;;;;;;4925478;29;37724;-81
2024/02/08 02:29:38;;;;;;;28.30;10.63;;;3.40;99.90;;;;;;4920917;29;37241;-79
2024/02/08 02:32:15;;;;;;;26.40;11.07;;;3.30;99.90;;;;;;4922846;29;37645;-80
2024/02/08 02:34:43;;;;;;;26.00;10.07;;;3.30;99.90;;;;;;4923197;29;35948;-80
2024/02/08 02:37:11;;;;;;;21.00;9.83;;;3.30;99.90;;;;;;4915636;29;37161;-80
2024/02/08 02:39:37;;;;;;;22.80;10.33;;;3.30;99.90;;;;;;4919752;29;38527;-80
2024/02/08 02:42:03;;;;;;;29.37;10.57;;;3.30;99.90;;;;;;4934249;28;37355;-81
2024/02/08 02:44:29;;;;;;;34.20;12.73;;;3.30;99.90;;;;;;4913921;29;39018;-81
2024/02/08 02:46:59;;;;;;;29.13;10.90;;;3.20;99.90;;;;;;4911721;29;39115;-80
2024/02/08 02:49:26;;;;;;;27.73;11.40;;;3.30;99.90;;;;;;4921569;29;39142;-80
2024/02/08 02:51:53;;;;;;;35.23;11.67;;;3.30;99.90;;;;;;4933432;28;35484;-79
2024/02/08 02:54:19;;;;;;;28.43;12.40;;;3.30;99.90;;;;;;4925057;29;38284;-79
2024/02/08 02:56:50;;;;;;;34.90;13.17;;;3.40;99.90;;;;;;4937427;28;37924;-79
2024/02/08 02:59:26;;;;;;;31.13;13.20;;;3.50;99.90;;;;;;4939467;28;37392;-80
2024/02/08 03:01:55;;;;;;;40.90;16.70;;;3.40;99.90;;;;;;4922286;29;38224;-80
2024/02/08 03:04:22;;;;;;;35.33;14.47;;;3.50;99.90;;;;;;4925582;28;38158;-81
2024/02/08 03:06:55;;;;;;;34.97;15.17;;;3.50;99.90;;;;;;4943286;28;37555;-80
2024/02/08 03:09:27;;;;;;;38.00;17.33;;;3.50;99.90;;;;;;4936338;28;37004;-79
2024/02/08 03:11:54;;;;;;;34.00;16.23;;;3.60;99.90;;;;;;4920756;29;36864;-81
2024/02/08 03:14:27;;;;;;;43.27;18.33;;;3.60;99.90;;;;;;4918337;28;38893;-80
2024/02/08 03:17:00;;;;;;;33.00;15.23;;;3.60;99.90;;;;;;4929158;29;38539;-80
2024/02/08 03:19:28;;;;;;;27.83;13.57;;;3.60;99.90;;;;;;4945133;29;37369;-80
2024/02/08 03:21:56;;;;;;;37.87;16.43;;;3.70;99.90;;;;;;4946129;28;37024;-80
2024/02/08 03:24:24;;;;;;;42.37;15.67;;;3.70;99.90;;;;;;4918397;28;37795;-81
2024/02/08 03:26:50;;;;;;;38.13;16.03;;;3.70;99.90;;;;;;4941366;28;39077;-80
2024/02/08 03:29:16;;;;;;;41.63;16.07;;;3.70;99.90;;;;;;4923708;29;38391;-80
2024/02/08 03:31:47;;;;;;;40.37;17.33;;;3.70;99.90;;;;;;4917884;29;35991;-80
2024/02/08 03:34:19;;;;;;;45.67;19.33;;;3.70;99.90;;;;;;4917878;28;37526;-78
2024/02/08 03:36:46;;;;;;;;;;;3.70;99.90;;;;;;4918848;29;38076;-79
2024/02/08 03:39:24;;;;;;;32.87;17.20;;;3.80;99.90;;;;;;4931653;29;37558;-80
2024/02/08 03:42:01;;;;;;;39.87;18.70;;;3.80;99.90;;;;;;4918030;29;36836;-78
2024/02/08 03:44:30;;;;;;;35.23;18.17;;;3.70;99.90;;;;;;4920357;29;46997;-80
2024/02/08 03:47:03;;;;;;;42.40;20.07;;;3.70;99.90;;;;;;4917201;29;39142;-80
2024/02/08 03:49:31;;;;;;;35.87;17.07;;;3.80;99.90;;;;;;4919217;29;47472;-81
2024/02/08 03:52:04;;;;;;;38.53;18.80;;;3.80;99.90;;;;;;4919401;29;37353;-79
2024/02/08 03:54:31;;;;;;;38.37;19.03;;;3.80;99.90;;;;;;4919679;29;47607;-80
2024/02/08 03:57:04;;;;;;;33.87;17.00;;;3.80;99.90;;;;;;4920514;29;38628;-80
2024/02/08 03:59:40;;;;;;;35.50;17.30;;;3.80;99.90;;;;;;4917738;29;47438;-80
2024/02/08 04:02:09;;;;;;;37.37;17.27;;;3.70;99.90;;;;;;4918385;29;34961;-80
2024/02/08 04:04:50;;;;;;;36.23;17.47;;;3.70;99.90;;;;;;4917746;29;39359;-79
2024/02/08 04:07:34;;;;;;;36.67;18.00;;;3.70;99.90;;;;;;4914398;29;38680;-80
2024/02/08 04:10:18;;;;;;;42.80;18.33;;;3.70;99.90;;;;;;4917624;29;38157;-80
2024/02/08 04:53:31;;;;;;;36.90;15.10;;;3.70;99.90;;;;;;4922788;29;49561;-78
2024/02/08 04:54:02;;;;;;;34.63;17.63;;;3.40;99.90;;;;;;4923807;28;38960;-80
2024/02/08 04:56:30;;;;;;;37.93;18.90;;;3.40;99.90;;;;;;4923241;28;48048;-80
2024/02/08 04:58:58;;;;;;;26.40;17.07;;;3.40;99.90;;;;;;4940475;28;38525;-80
2024/02/08 05:01:28;;;;;;;35.53;16.70;;;3.50;99.90;;;;;;4926084;28;38817;-80
2024/02/08 05:03:57;;;;;;;34.60;18.37;;;3.40;99.90;;;;;;4923885;29;39874;-79
2024/02/08 05:06:25;;;;;;;36.20;19.47;;;3.40;99.90;;;;;;4925944;29;36519;-80
2024/02/08 05:08:59;;;;;;;46.70;19.87;;;3.50;99.90;;;;;;4931685;29;38249;-81
2024/02/08 05:11:29;;;;;;;45.97;19.50;;;3.50;99.90;;;;;;4920242;28;37732;-81
2024/02/08 05:14:00;;;;;;;35.13;17.07;;;3.60;99.90;;;;;;4930907;28;37140;-81
2024/02/08 05:16:31;;;;;;;29.10;17.37;;;3.60;99.90;;;;;;4933017;28;48434;-80
2024/02/08 05:18:58;;;;;;;36.57;17.73;;;3.60;99.90;;;;;;4939472;28;37813;-80
2024/02/08 05:21:28;;;;;;;47.73;20.07;;;3.60;99.90;;;;;;4954973;28;38801;-80
2024/02/08 05:23:58;;;;;;;47.37;20.87;;;3.60;99.90;;;;;;4939731;28;37665;-79
2024/02/08 05:26:31;;;;;;;44.50;18.33;;;3.60;99.90;;;;;;4929719;28;36531;-80
2024/02/08 05:28:58;;;;;;;49.47;22.13;;;3.60;99.90;;;;;;4925093;28;38770;-81
2024/02/08 05:31:30;;;;;;;42.63;19.80;;;3.70;99.90;;;;;;4928877;29;39124;-80
2024/02/08 05:33:56;;;;;;;45.70;21.73;;;3.80;99.90;;;;;;4925853;29;34514;-81
2024/02/08 05:36:23;;;;;;;45.10;21.40;;;3.80;99.90;;;;;;4933669;28;37541;-81
2024/02/08 05:38:56;;;;;;;45.40;21.37;;;3.80;99.90;;;;;;4950529;28;37714;-79
2024/02/08 05:41:22;;;;;;;57.95;24.08;;;3.90;99.90;;;;;;4944696;28;37555;-81
2024/02/08 05:44:05;;;;;;;44.80;21.30;;;3.90;99.90;;;;;;4923101;29;37206;-81
2024/02/08 05:46:38;;;;;;;44.83;22.47;;;4.00;99.90;;;;;;4930861;28;47455;-81
2024/02/08 05:49:13;;;;;;;43.43;22.43;;;3.90;99.90;;;;;;4924515;29;39615;-81
2024/02/08 05:51:51;;;;;;;47.90;22.87;;;4.00;99.90;;;;;;4928278;28;39418;-81
2024/02/08 05:54:31;;;;;;;42.60;19.97;;;4.10;99.90;;;;;;4934545;23;39024;-80
2024/02/08 05:57:03;;;;;;;57.27;22.17;;;4.00;99.90;;;;;;4921230;29;37946;-80
2024/02/08 05:59:31;;;;;;;39.60;21.85;;;4.00;99.90;;;;;;4904788;29;47156;-80
2024/02/08 06:02:01;;;;;;;44.97;20.23;;;4.00;99.90;;;;;;4913413;29;38199;-80
2024/02/08 06:04:34;;;;;;;49.03;22.03;;;4.00;99.90;;;;;;4906948;29;49343;-79
2024/02/08 06:07:05;;;;;;;48.13;20.70;;;4.00;99.90;;;;;;4906876;29;38527;-79
2024/02/08 06:09:47;;;;;;;41.40;19.77;;;4.00;99.90;;;;;;4908238;29;48343;-80
2024/02/08 06:15:14;;;;;;;47.23;21.90;;;4.10;99.90;;;;;;4902316;29;39030;-79
2024/02/08 06:17:45;;;;;;;51.80;23.47;;;4.10;99.90;;;;;;4892010;29;36787;-80
2024/02/08 06:20:14;;;;;;;52.67;24.93;;;4.10;99.90;;;;;;4901495;29;38122;-80
2024/02/08 06:22:43;;;;;;;56.37;26.23;;;4.10;99.90;;;;;;4895406;29;36936;-79
2024/02/08 06:25:26;;;;;;;58.17;26.37;;;4.10;99.90;;;;;;4893983;29;36738;-81
2024/02/08 06:27:56;;;;;;;70.53;29.17;;;4.10;99.90;;;;;;4896577;29;37093;-79
2024/02/08 06:30:25;;;;;;;56.17;29.53;;;4.20;99.90;;;;;;4899125;29;38702;-80
2024/02/08 06:33:07;;;;;;;65.67;29.87;;;4.20;99.90;;;;;;4895458;29;36280;-79
2024/02/08 06:35:38;;;;;;;71.88;31.95;;;4.10;99.90;;;;;;4895162;29;48969;-80
2024/02/08 06:38:13;;;;;;;73.17;30.87;;;4.20;99.90;;;;;;4896234;29;36689;-79
2024/02/08 06:41:24;;;;;;;59.73;30.03;;;4.20;99.90;;;;;;4892233;29;37848;-79
2024/02/08 06:43:56;;;;;;;71.30;32.95;;;4.20;99.90;;;;;;4909477;29;49199;-81
2024/02/08 06:46:28;;;;;;;63.77;30.83;;;4.20;99.90;;;;;;4906705;29;39124;-80
2024/02/08 07:39:30;;;;;;;97.25;33.05;;;4.30;99.90;;;;;;4933278;28;39734;-81
2024/02/08 07:45:12;;;;;;;68.43;29.70;;;4.40;99.90;;;;;;4932942;29;49960;-80
2024/02/08 07:47:40;;;;;;;74.97;29.33;;;4.40;99.90;;;;;;4934280;29;38249;-82
2024/02/08 07:50:08;;;;;;;80.10;31.23;;;4.40;99.90;;;;;;4929547;29;39497;-79
2024/02/08 07:52:58;;;;;;;78.60;30.53;;;4.50;99.90;;;;;;4912977;29;37463;-80
2024/02/08 07:55:46;;;;;;;70.83;29.53;;;4.50;99.90;;;;;;4909475;28;37395;-80
2024/02/08 07:58:08;;;;;;;65.50;28.73;;;4.50;99.90;;;;;;4930306;28;38705;-81
2024/02/08 08:05:43;;;;;;;65.97;26.87;;;4.60;99.90;;;;;;5879575;23;20041;-81
2024/02/08 08:08:24;;;;;;;;;;;4.60;99.90;;;;;;4910618;28;40215;-79
2024/02/08 08:11:02;;;;;;;68.60;26.43;;;4.60;99.90;;;;;;4914879;28;39794;-80
2024/02/08 08:19:12;;;;;;;52.43;21.70;;;4.60;99.90;;;;;;4913580;28;40736;-81
2024/02/08 08:24:28;;;;;;;53.33;21.37;;;4.70;99.90;;;;;;4913543;28;49425;-80
2024/02/08 08:29:43;;;;;;;44.83;19.33;;;4.70;99.90;;;;;;4933015;28;50359;-80
2024/02/08 08:40:48;;;;;;;47.43;18.90;;;4.70;99.90;;;;;;4930409;28;49497;-82
2024/02/08 08:43:19;;;;;;;46.07;17.87;;;4.70;99.90;;;;;;4929068;29;38058;-81
2024/02/08 08:45:50;;;;;;;44.33;16.40;;;4.70;99.90;;;;;;4930007;29;38541;-82
2024/02/08 08:48:20;;;;;;;48.83;19.07;;;4.70;99.90;;;;;;4927886;28;36664;-80
2024/02/08 08:50:55;;;;;;;45.10;18.33;;;4.70;99.90;;;;;;4922607;29;38201;-79
2024/02/08 08:53:27;;;;;;;49.03;19.57;;;4.70;99.90;;;;;;4910069;28;37356;-79
2024/02/08 08:55:55;;;;;;;40.03;14.70;;;4.70;99.90;;;;;;4901874;28;37574;-79
2024/02/08 08:58:28;;;;;;;49.83;17.87;;;4.70;99.90;;;;;;4904716;29;37832;-80
2024/02/08 09:03:39;;;;;;;40.60;15.77;;;4.70;99.90;;;;;;4901822;28;49487;-78
2024/02/08 09:06:12;;;;;;;37.93;13.97;;;4.70;99.90;;;;;;4898836;29;36895;-79
2024/02/08 09:08:55;;;;;;;37.45;15.48;;;4.70;99.90;;;;;;4899109;28;38059;-79
2024/02/08 09:11:24;;;;;;;43.10;15.13;;;4.60;99.90;;;;;;4897369;28;39627;-77
2024/02/08 09:13:55;;;;;;;38.07;14.60;;;4.60;99.90;;;;;;4895379;29;37275;-77
2024/02/08 09:21:32;;;;;;;37.70;15.63;;;4.60;99.90;;;;;;4895450;29;50289;-79
2024/02/08 09:24:17;;;;;;;44.80;13.93;;;4.60;99.90;;;;;;4903777;29;37738;-78
2024/02/08 09:27:05;;;;;;;43.20;15.20;;;4.60;99.90;;;;;;4904795;29;47638;-79
2024/02/08 09:29:38;;;;;;;43.00;14.60;;;4.60;99.90;;;;;;4905759;28;48192;-78
2024/02/08 09:32:18;;;;;;;35.93;12.77;;;4.50;99.90;;;;;;4912303;29;37730;-78
2024/02/08 09:35:00;;;;;;;35.80;12.53;;;4.50;99.90;;;;;;4935689;28;37059;-82
2024/02/08 09:37:29;;;;;;;34.20;11.70;;;4.50;99.90;;;;;;4923736;29;37238;-77
2024/02/08 09:42:27;;;;;;;47.27;15.00;;;4.60;99.90;;;;;;4920344;29;39054;-77
2024/02/08 09:45:13;;;;;;;32.20;12.27;;;4.60;99.90;;;;;;4923051;28;37672;-78
2024/02/08 09:47:51;;;;;;;39.77;12.53;;;4.60;99.90;;;;;;4907034;29;47531;-78
2024/02/08 09:50:36;;;;;;;30.97;12.70;;;4.70;99.90;;;;;;4902206;29;36237;-78
2024/02/08 09:53:17;;;;;;;37.70;12.00;;;4.70;99.90;;;;;;4910943;28;38896;-77
2024/02/08 09:55:55;;;;;;;44.53;11.43;;;4.70;99.90;;;;;;4903781;29;37365;-77
2024/02/08 09:58:37;;;;;;;36.47;11.23;;;4.60;99.90;;;;;;4908911;29;37014;-78
2024/02/08 10:01:30;;;;;;;34.27;11.07;;;4.50;99.90;;;;;;4915211;29;36709;-79
2024/02/08 10:04:05;;;;;;;36.13;12.20;;;4.50;99.90;;;;;;4922608;28;48030;-77
2024/02/08 10:07:19;;;;;;;28.07;12.17;;;4.60;99.90;;;;;;4911667;29;47103;-78
2024/02/08 10:09:46;;;;;;;51.67;14.07;;;4.50;99.90;;;;;;4909420;29;37893;-78
2024/02/08 10:12:20;;;;;;;32.00;15.10;;;4.60;99.90;;;;;;4911734;29;36726;-78
2024/02/08 10:14:54;;;;;;;35.63;15.03;;;4.60;99.90;;;;;;4912774;29;38011;-76
2024/02/08 10:17:42;;;;;;;38.97;16.67;;;4.60;99.90;;;;;;4921779;28;37477;-78
2024/02/08 10:22:56;;;;;;;39.13;16.93;;;4.60;99.90;;;;;;4907722;29;37359;-77
2024/02/08 10:28:09;;;;;;;37.27;15.87;;;4.70;99.90;;;;;;4912215;29;39947;-77
2024/02/08 10:30:36;;;;;;;36.53;17.87;;;4.70;99.90;;;;;;4912534;28;37661;-79
2024/02/08 10:33:10;;;;;;;39.77;16.23;;;4.80;99.90;;;;;;4911516;29;38080;-78
2024/02/08 10:35:42;;;;;;;45.43;17.57;;;4.70;99.90;;;;;;4914007;28;38375;-78
2024/02/08 10:38:29;;;;;;;40.47;16.10;;;4.60;99.90;;;;;;4917149;28;39330;-78
2024/02/08 10:40:59;;;;;;;40.53;16.03;;;4.70;99.90;;;;;;4912058;29;39339;-78
2024/02/08 10:43:25;;;;;;;37.53;17.07;;;4.60;99.90;;;;;;4911803;29;36331;-79
2024/02/08 10:46:02;;;;;;;37.27;16.47;;;4.70;99.90;;;;;;4912477;29;38710;-77
2024/02/08 10:48:29;;;;;;;39.60;15.57;;;4.70;99.90;;;;;;4911705;29;47305;-77
2024/02/08 10:51:02;;;;;;;34.27;15.20;;;4.60;99.90;;;;;;4910785;29;38928;-77
2024/02/08 10:53:43;;;;;;;;;;;4.50;99.90;;;;;;4913011;28;48623;-78
2024/02/08 10:56:16;;;;;;;37.30;17.10;;;4.60;99.90;;;;;;4905428;29;39412;-78
2024/02/08 10:59:09;;;;;;;46.77;16.47;;;4.60;99.90;;;;;;4904876;29;38097;-77
2024/02/08 11:04:30;;;;;;;40.67;17.23;;;4.60;99.90;;;;;;4909678;28;37829;-78
2024/02/08 11:07:14;;;;;;;39.60;16.90;;;4.60;99.90;;;;;;4906854;29;38728;-78
2024/02/08 11:09:44;;;;;;;39.60;17.13;;;4.60;99.90;;;;;;4907450;29;47424;-77
2024/02/08 11:12:18;;;;;;;45.83;19.43;;;4.60;99.90;;;;;;4909131;28;38067;-78
2024/02/08 11:14:58;;;;;;;48.80;18.53;;;4.60;99.90;;;;;;4910279;29;36585;-77
2024/02/08 11:17:26;;;;;;;44.03;18.70;;;4.60;99.90;;;;;;4908344;29;37523;-78
2024/02/08 11:19:56;;;;;;;48.13;20.33;;;4.60;99.90;;;;;;4912071;29;37668;-77
2024/02/08 11:22:39;;;;;;;40.23;20.00;;;4.60;99.90;;;;;;4908810;29;37106;-77
2024/02/08 11:25:44;;;;;;;;;;;4.60;99.90;;;;;;4904766;29;36617;-79
2024/02/08 11:28:13;;;;;;;40.17;17.13;;;4.50;99.90;;;;;;4909521;29;38643;-78
2024/02/08 11:30:40;;;;;;;41.07;17.70;;;4.50;99.90;;;;;;4905223;29;49030;-77
2024/02/08 11:33:13;;;;;;;37.50;15.97;;;4.50;99.90;;;;;;4910543;29;38227;-81
2024/02/08 11:35:54;;;;;;;40.03;16.00;;;4.40;99.90;;;;;;4915238;29;37721;-80
2024/02/08 11:38:34;;;;;;;34.17;15.93;;;4.40;99.90;;;;;;4913864;29;37669;-80
2024/02/08 11:41:10;;;;;;;38.70;16.83;;;4.40;99.90;;;;;;4921583;28;38657;-80
2024/02/08 11:43:47;;;;;;;34.63;17.23;;;4.40;99.90;;;;;;4915979;29;47374;-79
2024/02/08 11:46:18;;;;;;;39.87;18.77;;;4.50;99.90;;;;;;4910938;28;37758;-77
2024/02/08 11:48:48;;;;;;;43.30;17.30;;;4.60;99.90;;;;;;4909196;29;37636;-78
2024/02/08 11:51:16;;;;;;;44.83;18.53;;;4.60;99.90;;;;;;4915221;28;38613;-79
2024/02/08 11:53:47;;;;;;;33.13;16.93;;;4.60;99.90;;;;;;4908281;29;37504;-79
2024/02/08 11:56:20;;;;;;;40.40;17.30;;;4.50;99.90;;;;;;4914109;28;36586;-78
2024/02/08 11:58:49;;;;;;;36.70;16.80;;;4.50;99.90;;;;;;4924233;28;39252;-78
2024/02/08 12:01:17;;;;;;;28.23;14.20;;;4.40;99.90;;;;;;4915434;28;39003;-79
2024/02/08 12:03:50;;;;;;;30.33;15.53;;;4.30;99.90;;;;;;4910473;29;37396;-79
2024/02/08 12:06:22;;;;;;;32.78;15.75;;;4.40;99.90;;;;;;4908984;28;38262;-79
2024/02/08 12:08:59;;;;;;;36.75;15.75;;;4.40;99.90;;;;;;4914316;29;37650;-78
2024/02/08 12:11:32;;;;;;;34.53;16.30;;;4.40;99.90;;;;;;4927585;29;37542;-79
2024/02/08 12:14:06;;;;;;;42.33;17.93;;;4.50;99.90;;;;;;4915875;29;38469;-79
2024/02/08 12:16:38;;;;;;;32.03;15.33;;;4.40;99.90;;;;;;4914979;29;48787;-78
2024/02/08 12:19:13;;;;;;;40.40;17.90;;;4.40;99.90;;;;;;4912212;29;39505;-80
2024/02/08 12:21:41;;;;;;;30.17;14.77;;;4.40;99.90;;;;;;4908830;29;37563;-78
2024/02/08 12:24:15;;;;;;;29.90;14.73;;;4.40;99.90;;;;;;4914691;28;38517;-79
2024/02/08 12:26:43;;;;;;;31.37;15.57;;;4.50;99.90;;;;;;4911571;29;36305;-79
2024/02/08 12:29:16;;;;;;;33.77;13.20;;;4.40;99.90;;;;;;4914115;28;38240;-80
2024/02/08 12:31:47;;;;;;;29.80;13.53;;;4.50;99.90;;;;;;4925246;29;38387;-78
2024/02/08 12:34:17;;;;;;;26.50;12.47;;;4.40;99.90;;;;;;4911951;28;37341;-79
2024/02/08 12:36:46;;;;;;;32.47;12.63;;;4.40;99.90;;;;;;4915462;28;38194;-79
2024/02/08 12:39:18;;;;;;;33.83;14.53;;;4.30;99.90;;;;;;4912480;28;38529;-79
2024/02/08 12:41:49;;;;;;;30.73;13.57;;;4.30;99.90;;;;;;4912270;29;38636;-80
2024/02/08 12:44:20;;;;;;;31.97;14.07;;;4.20;99.90;;;;;;4924130;29;38344;-80
2024/02/08 12:46:52;;;;;;;24.57;12.83;;;4.30;99.90;;;;;;4928889;28;36474;-79
2024/02/08 12:49:19;;;;;;;33.03;13.13;;;4.30;99.90;;;;;;4913597;28;40036;-77
2024/02/08 12:51:46;;;;;;;28.03;13.13;;;4.30;99.90;;;;;;4910135;29;37468;-78
2024/02/08 12:54:15;;;;;;;29.27;12.03;;;4.30;99.90;;;;;;4906748;29;37638;-78
2024/02/08 12:56:45;;;;;;;29.80;12.30;;;4.20;99.90;;;;;;4907047;29;36542;-79
2024/02/08 12:59:11;;;;;;;25.27;11.53;;;4.20;99.90;;;;;;4908960;29;37805;-78
2024/02/08 13:01:39;;;;;;;25.53;11.67;;;4.20;99.90;;;;;;4909700;28;38309;-77
2024/02/08 13:04:06;;;;;;;28.97;11.37;;;4.20;99.90;;;;;;4906042;29;38274;-77
2024/02/08 13:06:33;;;;;;;22.77;10.80;;;4.10;99.90;;;;;;4910608;29;36988;-78
2024/02/08 13:09:25;;;;;;;27.87;11.87;;;4.20;99.90;;;;;;4903836;29;37850;-78
2024/02/08 13:12:17;;;;;;;25.53;10.50;;;4.20;99.90;;;;;;4906737;29;47107;-77
2024/02/08 13:15:05;;;;;;;34.03;12.87;;;4.10;99.90;;;;;;4925081;28;49489;-78
2024/02/08 13:17:35;;;;;;;26.70;12.17;;;4.20;99.90;;;;;;4908448;29;46613;-78
2024/02/08 13:20:16;;;;;;;27.73;11.93;;;4.10;99.90;;;;;;4915948;29;37668;-78
2024/02/08 13:22:45;;;;;;;32.27;12.27;;;4.10;99.90;;;;;;4918031;29;48852;-78
2024/02/08 13:25:15;;;;;;;29.67;12.63;;;4.20;99.90;;;;;;4913291;29;37067;-79
2024/02/08 13:27:44;;;;;;;30.47;13.53;;;4.10;99.90;;;;;;4913389;29;37436;-80
2024/02/08 13:30:17;;;;;;;31.80;13.10;;;4.10;99.90;;;;;;4909137;28;37684;-78
2024/02/08 13:32:44;;;;;;;;;;;4.10;99.90;;;;;;4918763;28;37679;-79
2024/02/08 13:35:18;;;;;;;30.30;12.50;;;4.10;99.90;;;;;;4910835;29;37113;-80
2024/02/08 13:37:46;;;;;;;39.73;12.63;;;4.10;99.90;;;;;;4911788;29;35620;-79
2024/02/08 13:40:13;;;;;;;27.70;12.00;;;4.10;99.90;;;;;;4915228;28;39181;-79
2024/02/08 13:42:39;;;;;;;24.97;12.03;;;4.10;99.90;;;;;;4909041;29;39264;-81
2024/02/08 13:45:06;;;;;;;29.00;11.90;;;4.10;99.90;;;;;;4919349;28;37196;-80
2024/02/08 13:47:36;;;;;;;27.73;11.17;;;4.10;99.90;;;;;;4915385;29;36471;-78
2024/02/08 13:50:02;;;;;;;25.20;10.80;;;4.00;99.90;;;;;;4911863;29;38191;-78
2024/02/08 13:52:30;;;;;;;25.37;10.40;;;4.00;99.90;;;;;;4909943;29;38460;-79
2024/02/08 13:54:58;;;;;;;32.70;12.10;;;3.90;99.90;;;;;;4911993;29;38966;-78
2024/02/08 13:57:24;;;;;;;30.93;11.17;;;4.00;99.90;;;;;;4910154;29;37195;-79
2024/02/08 13:59:51;;;;;;;28.83;10.67;;;3.90;99.90;;;;;;4915390;29;38633;-78
2024/02/08 14:02:20;;;;;;;27.87;11.27;;;3.90;99.90;;;;;;4915237;28;38475;-78
2024/02/08 14:04:59;;;;;;;24.00;11.23;;;3.90;99.90;;;;;;4913069;28;37339;-79
2024/02/08 14:07:29;;;;;;;28.63;12.20;;;4.00;99.90;;;;;;4911695;28;37713;-78
2024/02/08 14:09:59;;;;;;;26.43;12.27;;;4.00;99.90;;;;;;4912036;29;37634;-79
2024/02/08 14:12:26;;;;;;;28.50;12.47;;;4.00;99.90;;;;;;4901865;29;37308;-79
2024/02/08 14:14:57;;;;;;;26.40;11.40;;;4.00;99.90;;;;;;4909098;29;36942;-78
2024/02/08 14:17:34;;;;;;;26.30;11.77;;;3.90;99.90;;;;;;4907631;29;36546;-78
2024/02/08 14:20:01;;;;;;;21.87;10.73;;;3.80;99.90;;;;;;4908865;29;38090;-78
2024/02/08 14:22:33;;;;;;;23.93;11.37;;;3.80;99.90;;;;;;4909030;29;38768;-78
2024/02/08 14:24:59;;;;;;;26.17;11.18;;;3.80;99.90;;;;;;4910338;29;36962;-79
2024/02/08 14:27:28;;;;;;;20.93;12.00;;;3.80;99.90;;;;;;4909634;28;36491;-79
2024/02/08 14:29:54;;;;;;;25.80;12.10;;;3.80;99.90;;;;;;4909591;29;38720;-79
2024/02/08 14:32:21;;;;;;;16.87;10.27;;;3.90;99.90;;;;;;4908319;29;38686;-78
2024/02/08 14:34:48;;;;;;;16.37;10.50;;;3.90;99.90;;;;;;4912085;29;38991;-79
2024/02/08 14:37:21;;;;;;;21.90;12.37;;;3.90;99.90;;;;;;4906864;29;36797;-79
2024/02/08 14:39:47;;;;;;;19.23;11.13;;;3.80;99.90;;;;;;4907901;29;38342;-79
2024/02/08 14:42:17;;;;;;;20.47;11.60;;;3.80;99.90;;;;;;4907506;29;36049;-79
2024/02/08 14:44:44;;;;;;;23.33;12.30;;;3.80;99.90;;;;;;4909257;29;37088;-77
2024/02/08 14:47:21;;;;;;;21.63;12.07;;;3.90;99.90;;;;;;4907897;28;33711;-78
2024/02/08 14:50:00;;;;;;;20.03;11.33;;;3.90;99.90;;;;;;4907561;29;36535;-78
2024/02/08 14:52:43;;;;;;;23.17;13.63;;;3.90;99.90;;;;;;4906725;29;37738;-79
2024/02/08 14:55:10;;;;;;;20.77;11.93;;;3.90;99.90;;;;;;4905614;29;35790;-80
2024/02/08 14:57:42;;;;;;;23.70;13.07;;;4.00;99.90;;;;;;4905814;29;37466;-78
2024/02/08 15:03:02;;;;;;;24.90;13.83;;;3.90;99.90;;;;;;4907679;29;49134;-78
2024/02/08 15:05:48;;;;;;;28.73;14.03;;;3.90;99.90;;;;;;4905982;28;48627;-78
2024/02/08 15:11:02;;;;;;;22.50;13.63;;;4.00;99.90;;;;;;4899480;29;40123;-78
2024/02/08 15:13:45;;;;;;;28.97;15.43;;;3.90;99.90;;;;;;4921209;28;47115;-78
2024/02/08 15:16:12;;;;;;;;;;;4.00;99.90;;;;;;4908190;29;37194;-79
2024/02/08 15:18:47;;;;;;;21.40;14.73;;;4.00;99.90;;;;;;4909307;28;37789;-79
2024/02/08 15:21:34;;;;;;;22.07;13.73;;;4.00;99.90;;;;;;4905943;29;39835;-80
2024/02/08 15:26:47;;;;;;;23.93;16.40;;;4.10;99.90;;;;;;4904444;29;49616;-78
2024/02/08 15:29:30;;;;;;;20.40;14.83;;;4.20;99.90;;;;;;4910627;29;36213;-78